sensor_id;sensor_type;location;lat;lon;timestamp;pressure;altitude;pressure_sealevel;temperature;humidity
68179;BME280;69812;42.632;23.440;2023-09-07T00:01:53;95602.06;;;17.32;87.26
68179;BME280;69812;42.632;23.440;2023-09-07T00:04:23;95612.78;;;17.29;87.55
68179;BME280;69812;42.632;23.440;2023-09-07T00:06:49;95610.66;;;17.24;88.33
68179;BME280;69812;42.632;23.440;2023-09-07T00:09:16;95605.16;;;17.11;90.09
68179;BME280;69812;42.632;23.440;2023-09-07T00:11:43;95599.81;;;16.96;91.04
68179;BME280;69812;42.632;23.440;2023-09-07T00:14:09;95604.00;;;16.89;91.33
68179;BME280;69812;42.632;23.440;2023-09-07T00:16:34;95607.88;;;16.93;91.92
68179;BME280;69812;42.632;23.440;2023-09-07T00:19:01;95622.97;;;16.90;91.72
68179;BME280;69812;42.632;23.440;2023-09-07T00:21:28;95604.34;;;16.94;91.35
68179;BME280;69812;42.632;23.440;2023-09-07T00:23:53;95607.88;;;16.93;91.04
68179;BME280;69812;42.632;23.440;2023-09-07T00:26:20;95621.19;;;16.98;91.04
68179;BME280;69812;42.632;23.440;2023-09-07T00:28:47;95607.72;;;16.95;91.40
68179;BME280;69812;42.632;23.440;2023-09-07T00:31:13;95616.81;;;16.99;91.52
68179;BME280;69812;42.632;23.440;2023-09-07T00:33:38;95616.50;;;17.18;90.87
68179;BME280;69812;42.632;23.440;2023-09-07T00:36:04;95600.59;;;16.97;91.66
68179;BME280;69812;42.632;23.440;2023-09-07T00:38:31;95597.22;;;16.96;91.01
68179;BME280;69812;42.632;23.440;2023-09-07T00:40:57;95609.50;;;17.11;88.27
68179;BME280;69812;42.632;23.440;2023-09-07T00:43:22;95605.31;;;17.10;86.95
68179;BME280;69812;42.632;23.440;2023-09-07T00:45:51;95603.38;;;17.20;86.07
68179;BME280;69812;42.632;23.440;2023-09-07T00:48:16;95607.28;;;17.16;85.31
68179;BME280;69812;42.632;23.440;2023-09-07T00:50:42;95609.84;;;17.08;86.71
68179;BME280;69812;42.632;23.440;2023-09-07T00:53:08;95597.38;;;17.11;86.37
68179;BME280;69812;42.632;23.440;2023-09-07T00:55:37;95602.38;;;17.13;86.35
68179;BME280;69812;42.632;23.440;2023-09-07T00:58:04;95599.78;;;17.21;86.58
68179;BME280;69812;42.632;23.440;2023-09-07T01:00:29;95601.09;;;17.25;86.42
68179;BME280;69812;42.632;23.440;2023-09-07T01:02:55;95602.09;;;17.24;87.04
68179;BME280;69812;42.632;23.440;2023-09-07T01:05:29;95597.19;;;17.29;86.75
68179;BME280;69812;42.632;23.440;2023-09-07T01:08:09;95602.53;;;17.36;86.14
68179;BME280;69812;42.632;23.440;2023-09-07T01:10:35;95607.72;;;17.44;86.35
68179;BME280;69812;42.632;23.440;2023-09-07T01:13:01;95601.91;;;17.25;86.96
68179;BME280;69812;42.632;23.440;2023-09-07T01:15:26;95605.28;;;17.26;86.73
68179;BME280;69812;42.632;23.440;2023-09-07T01:17:51;95606.78;;;17.20;87.26
68179;BME280;69812;42.632;23.440;2023-09-07T01:20:17;95612.75;;;17.21;87.79
68179;BME280;69812;42.632;23.440;2023-09-07T01:22:43;95615.66;;;17.26;88.01
68179;BME280;69812;42.632;23.440;2023-09-07T01:25:09;95610.66;;;17.24;88.85
68179;BME280;69812;42.632;23.440;2023-09-07T01:27:37;95605.97;;;17.20;88.52
68179;BME280;69812;42.632;23.440;2023-09-07T01:30:03;95603.34;;;17.28;88.14
68179;BME280;69812;42.632;23.440;2023-09-07T01:32:28;95601.59;;;17.29;87.92
68179;BME280;69812;42.632;23.440;2023-09-07T01:34:56;95610.31;;;17.28;88.09
68179;BME280;69812;42.632;23.440;2023-09-07T01:37:22;95602.06;;;17.32;88.32
68179;BME280;69812;42.632;23.440;2023-09-07T01:39:47;95600.44;;;17.31;88.41
68179;BME280;69812;42.632;23.440;2023-09-07T01:42:14;95608.53;;;17.36;88.64
68179;BME280;69812;42.632;23.440;2023-09-07T01:44:44;95599.31;;;17.25;88.76
68179;BME280;69812;42.632;23.440;2023-09-07T01:47:10;95597.19;;;17.37;87.94
68179;BME280;69812;42.632;23.440;2023-09-07T01:49:35;95601.09;;;17.41;87.85
68179;BME280;69812;42.632;23.440;2023-09-07T01:52:03;95602.69;;;17.34;87.97
68179;BME280;69812;42.632;23.440;2023-09-07T01:54:29;95609.03;;;17.32;88.28
68179;BME280;69812;42.632;23.440;2023-09-07T01:56:54;95606.59;;;17.30;88.10
68179;BME280;69812;42.632;23.440;2023-09-07T01:59:19;95608.38;;;17.30;87.43
68179;BME280;69812;42.632;23.440;2023-09-07T02:01:45;95600.44;;;17.39;86.46
68179;BME280;69812;42.632;23.440;2023-09-07T02:04:12;95605.78;;;17.38;86.62
68179;BME280;69812;42.632;23.440;2023-09-07T02:06:40;95604.00;;;17.30;86.36
68179;BME280;69812;42.632;23.440;2023-09-07T02:09:05;95601.25;;;17.32;85.98
68179;BME280;69812;42.632;23.440;2023-09-07T02:11:31;95593.63;;;17.38;83.44
68179;BME280;69812;42.632;23.440;2023-09-07T02:13:58;95602.69;;;17.59;82.75
68179;BME280;69812;42.632;23.440;2023-09-07T02:16:24;95603.66;;;17.58;82.27
68179;BME280;69812;42.632;23.440;2023-09-07T02:19:00;95598.94;;;17.61;81.60
68179;BME280;69812;42.632;23.440;2023-09-07T02:21:26;95601.22;;;17.56;81.64
68179;BME280;69812;42.632;23.440;2023-09-07T02:23:51;95604.94;;;17.62;81.97
68179;BME280;69812;42.632;23.440;2023-09-07T02:26:16;95602.69;;;17.42;82.87
68179;BME280;69812;42.632;23.440;2023-09-07T02:28:44;95609.19;;;17.47;83.26
68179;BME280;69812;42.632;23.440;2023-09-07T02:31:10;95605.28;;;17.42;83.81
68179;BME280;69812;42.632;23.440;2023-09-07T02:33:38;95608.03;;;17.41;83.63
68179;BME280;69812;42.632;23.440;2023-09-07T02:36:04;95616.97;;;17.38;84.08
68179;BME280;69812;42.632;23.440;2023-09-07T02:38:29;95612.44;;;17.32;84.92
68179;BME280;69812;42.632;23.440;2023-09-07T02:40:55;95604.34;;;17.35;84.64
68179;BME280;69812;42.632;23.440;2023-09-07T02:43:21;95619.09;;;17.27;84.98
68179;BME280;69812;42.632;23.440;2023-09-07T02:45:49;95612.63;;;17.22;84.99
68179;BME280;69812;42.632;23.440;2023-09-07T02:48:15;95613.25;;;17.16;85.51
68179;BME280;69812;42.632;23.440;2023-09-07T02:50:43;95615.19;;;17.14;85.56
68179;BME280;69812;42.632;23.440;2023-09-07T02:53:10;95618.59;;;17.15;86.62
68179;BME280;69812;42.632;23.440;2023-09-07T02:55:39;95616.81;;;16.99;88.61
68179;BME280;69812;42.632;23.440;2023-09-07T02:58:04;95609.34;;;16.88;89.93
68179;BME280;69812;42.632;23.440;2023-09-07T03:00:30;95617.06;;;16.71;90.93
68179;BME280;69812;42.632;23.440;2023-09-07T03:02:58;95617.19;;;16.53;92.45
68179;BME280;69812;42.632;23.440;2023-09-07T03:05:27;95620.88;;;16.42;93.84
68179;BME280;69812;42.632;23.440;2023-09-07T03:07:55;95611.00;;;16.38;94.54
68179;BME280;69812;42.632;23.440;2023-09-07T03:10:20;95618.97;;;16.61;94.06
68179;BME280;69812;42.632;23.440;2023-09-07T03:12:46;95611.47;;;16.33;94.25
68179;BME280;69812;42.632;23.440;2023-09-07T03:15:11;95603.03;;;16.23;96.02
68179;BME280;69812;42.632;23.440;2023-09-07T03:17:37;95611.56;;;16.15;96.77
68179;BME280;69812;42.632;23.440;2023-09-07T03:20:02;95607.63;;;16.03;97.56
68179;BME280;69812;42.632;23.440;2023-09-07T03:22:42;95608.53;;;16.20;97.63
68179;BME280;69812;42.632;23.440;2023-09-07T03:25:11;95605.25;;;16.10;98.05
68179;BME280;69812;42.632;23.440;2023-09-07T03:27:37;95607.34;;;16.14;98.40
68179;BME280;69812;42.632;23.440;2023-09-07T03:30:04;95605.34;;;16.00;98.97
68179;BME280;69812;42.632;23.440;2023-09-07T03:32:31;95611.03;;;16.04;98.92
68179;BME280;69812;42.632;23.440;2023-09-07T03:35:03;95613.09;;;16.00;98.80
68179;BME280;69812;42.632;23.440;2023-09-07T03:37:35;95614.13;;;16.07;98.99
68179;BME280;69812;42.632;23.440;2023-09-07T03:40:02;95622.91;;;16.14;98.44
68179;BME280;69812;42.632;23.440;2023-09-07T03:42:30;95619.78;;;16.11;98.28
68179;BME280;69812;42.632;23.440;2023-09-07T03:44:55;95620.25;;;16.06;97.73
68179;BME280;69812;42.632;23.440;2023-09-07T03:47:21;95621.84;;;15.99;97.88
68179;BME280;69812;42.632;23.440;2023-09-07T03:49:48;95618.00;;;16.03;97.86
68179;BME280;69812;42.632;23.440;2023-09-07T03:52:14;95630.34;;;16.17;96.84
68179;BME280;69812;42.632;23.440;2023-09-07T03:54:39;95633.88;;;16.08;97.26
68179;BME280;69812;42.632;23.440;2023-09-07T03:57:04;95625.44;;;16.06;97.21
68179;BME280;69812;42.632;23.440;2023-09-07T03:59:30;95640.03;;;16.15;97.12
68179;BME280;69812;42.632;23.440;2023-09-07T04:01:55;95642.28;;;16.10;96.88
68179;BME280;69812;42.632;23.440;2023-09-07T04:04:20;95640.88;;;16.16;97.20
68179;BME280;69812;42.632;23.440;2023-09-07T04:06:47;95645.63;;;16.29;96.99
68179;BME280;69812;42.632;23.440;2023-09-07T04:09:16;95645.13;;;16.25;97.09
68179;BME280;69812;42.632;23.440;2023-09-07T04:11:42;95639.00;;;16.34;97.06
68179;BME280;69812;42.632;23.440;2023-09-07T04:14:07;95638.88;;;16.44;96.80
68179;BME280;69812;42.632;23.440;2023-09-07T04:16:32;95634.34;;;16.46;96.36
68179;BME280;69812;42.632;23.440;2023-09-07T04:19:00;95626.91;;;16.51;96.64
68179;BME280;69812;42.632;23.440;2023-09-07T04:21:26;95642.16;;;16.62;96.64
68179;BME280;69812;42.632;23.440;2023-09-07T04:23:54;95639.25;;;16.74;96.45
68179;BME280;69812;42.632;23.440;2023-09-07T04:26:20;95644.28;;;16.75;96.30
68179;BME280;69812;42.632;23.440;2023-09-07T04:28:45;95651.00;;;16.94;94.36
68179;BME280;69812;42.632;23.440;2023-09-07T04:31:11;95639.47;;;16.89;93.53
68179;BME280;69812;42.632;23.440;2023-09-07T04:33:36;95642.97;;;16.71;93.10
68179;BME280;69812;42.632;23.440;2023-09-07T04:36:11;95645.56;;;16.71;93.65
68179;BME280;69812;42.632;23.440;2023-09-07T04:38:37;95633.16;;;16.83;93.01
68179;BME280;69812;42.632;23.440;2023-09-07T04:41:11;95640.63;;;16.94;92.86
68179;BME280;69812;42.632;23.440;2023-09-07T04:43:39;95655.06;;;17.05;91.97
68179;BME280;69812;42.632;23.440;2023-09-07T04:46:11;95645.81;;;16.94;91.78
68179;BME280;69812;42.632;23.440;2023-09-07T04:48:37;95652.94;;;17.09;90.10
68179;BME280;69812;42.632;23.440;2023-09-07T04:51:04;95658.63;;;17.12;90.06
68179;BME280;69812;42.632;23.440;2023-09-07T04:53:38;95652.78;;;17.02;90.17
68179;BME280;69812;42.632;23.440;2023-09-07T04:56:05;95653.91;;;16.99;90.79
68179;BME280;69812;42.632;23.440;2023-09-07T04:58:30;95654.91;;;16.98;90.80
68179;BME280;69812;42.632;23.440;2023-09-07T05:01:06;95656.53;;;17.08;90.52
68179;BME280;69812;42.632;23.440;2023-09-07T05:03:34;95657.50;;;17.23;90.08
68179;BME280;69812;42.632;23.440;2023-09-07T05:06:00;95662.72;;;17.31;89.67
68179;BME280;69812;42.632;23.440;2023-09-07T05:08:26;95657.66;;;17.30;88.93
68179;BME280;69812;42.632;23.440;2023-09-07T05:10:59;95663.19;;;17.51;87.90
68179;BME280;69812;42.632;23.440;2023-09-07T05:13:25;95665.78;;;17.59;87.02
68179;BME280;69812;42.632;23.440;2023-09-07T05:15:51;95668.03;;;17.62;87.52
68179;BME280;69812;42.632;23.440;2023-09-07T05:18:17;95677.47;;;17.63;87.76
68179;BME280;69812;42.632;23.440;2023-09-07T05:20:44;95673.06;;;17.64;87.03
68179;BME280;69812;42.632;23.440;2023-09-07T05:23:20;95668.53;;;17.66;86.71
68179;BME280;69812;42.632;23.440;2023-09-07T05:25:50;95676.47;;;17.81;86.65
68179;BME280;69812;42.632;23.440;2023-09-07T05:28:21;95676.94;;;17.93;86.01
68179;BME280;69812;42.632;23.440;2023-09-07T05:30:48;95680.16;;;18.11;85.09
68179;BME280;69812;42.632;23.440;2023-09-07T05:33:15;95675.25;;;18.24;84.92
68179;BME280;69812;42.632;23.440;2023-09-07T05:35:41;95680.66;;;18.54;83.28
68179;BME280;69812;42.632;23.440;2023-09-07T05:38:08;95683.22;;;18.62;82.84
68179;BME280;69812;42.632;23.440;2023-09-07T05:40:37;95680.88;;;18.84;82.39
68179;BME280;69812;42.632;23.440;2023-09-07T05:43:06;95673.63;;;19.02;81.72
68179;BME280;69812;42.632;23.440;2023-09-07T05:45:35;95679.56;;;19.34;80.72
68179;BME280;69812;42.632;23.440;2023-09-07T05:48:02;95676.78;;;19.59;79.33
68179;BME280;69812;42.632;23.440;2023-09-07T05:50:28;95667.56;;;19.71;77.48
68179;BME280;69812;42.632;23.440;2023-09-07T05:52:54;95676.16;;;20.09;75.55
68179;BME280;69812;42.632;23.440;2023-09-07T05:55:21;95677.44;;;20.58;73.20
68179;BME280;69812;42.632;23.440;2023-09-07T05:57:48;95671.13;;;21.25;71.71
68179;BME280;69812;42.632;23.440;2023-09-07T06:00:14;95672.97;;;22.03;68.16
68179;BME280;69812;42.632;23.440;2023-09-07T06:02:41;95678.63;;;22.83;65.68
68179;BME280;69812;42.632;23.440;2023-09-07T06:05:07;95675.97;;;23.64;61.73
68179;BME280;69812;42.632;23.440;2023-09-07T06:07:32;95675.09;;;24.95;54.74
68179;BME280;69812;42.632;23.440;2023-09-07T06:09:57;95671.41;;;27.75;48.52
68179;BME280;69812;42.632;23.440;2023-09-07T06:12:24;95673.13;;;30.78;40.86
68179;BME280;69812;42.632;23.440;2023-09-07T06:14:49;95681.69;;;30.63;38.65
68179;BME280;69812;42.632;23.440;2023-09-07T06:17:15;95679.00;;;29.85;40.20
68179;BME280;69812;42.632;23.440;2023-09-07T06:19:48;95684.25;;;31.02;37.56
68179;BME280;69812;42.632;23.440;2023-09-07T06:22:13;95677.94;;;32.95;34.31
68179;BME280;69812;42.632;23.440;2023-09-07T06:24:38;95686.47;;;34.62;30.83
68179;BME280;69812;42.632;23.440;2023-09-07T06:27:04;95681.03;;;34.87;30.34
68179;BME280;69812;42.632;23.440;2023-09-07T06:29:29;95673.25;;;36.14;28.63
68179;BME280;69812;42.632;23.440;2023-09-07T06:31:59;95683.91;;;37.30;27.07
68179;BME280;69812;42.632;23.440;2023-09-07T06:34:27;95685.56;;;37.26;25.83
68179;BME280;69812;42.632;23.440;2023-09-07T06:36:52;95683.59;;;37.12;26.22
68179;BME280;69812;42.632;23.440;2023-09-07T06:39:18;95676.66;;;37.30;24.88
68179;BME280;69812;42.632;23.440;2023-09-07T06:41:48;95677.00;;;34.20;29.08
68179;BME280;69812;42.632;23.440;2023-09-07T06:44:13;95677.53;;;35.81;27.63
68179;BME280;69812;42.632;23.440;2023-09-07T06:46:39;95684.13;;;37.14;26.33
68179;BME280;69812;42.632;23.440;2023-09-07T06:49:07;95673.56;;;37.61;25.41
68179;BME280;69812;42.632;23.440;2023-09-07T06:51:33;95671.06;;;37.65;24.77
68179;BME280;69812;42.632;23.440;2023-09-07T06:53:59;95673.94;;;36.49;25.22
68179;BME280;69812;42.632;23.440;2023-09-07T06:56:24;95680.56;;;37.19;25.09
68179;BME280;69812;42.632;23.440;2023-09-07T06:58:59;95671.63;;;34.35;28.45
68179;BME280;69812;42.632;23.440;2023-09-07T07:16:58;95660.28;;;29.41;36.70
68179;BME280;69812;42.632;23.440;2023-09-07T07:19:24;95665.72;;;28.77;37.35
68179;BME280;69812;42.632;23.440;2023-09-07T07:21:49;95668.28;;;28.72;37.57
68179;BME280;69812;42.632;23.440;2023-09-07T07:24:15;95672.50;;;28.73;37.01
68179;BME280;69812;42.632;23.440;2023-09-07T07:26:41;95661.00;;;28.03;39.44
68179;BME280;69812;42.632;23.440;2023-09-07T07:29:06;95670.34;;;26.61;41.74
68179;BME280;69812;42.632;23.440;2023-09-07T07:31:32;95670.97;;;26.75;42.39
68179;BME280;69812;42.632;23.440;2023-09-07T07:33:57;95686.13;;;27.10;42.47
68179;BME280;69812;42.632;23.440;2023-09-07T07:36:23;95664.38;;;26.48;42.92
68179;BME280;69812;42.632;23.440;2023-09-07T07:38:49;95670.19;;;25.94;43.92
68179;BME280;69812;42.632;23.440;2023-09-07T07:41:15;95680.84;;;25.11;46.39
68179;BME280;69812;42.632;23.440;2023-09-07T07:43:40;95690.66;;;24.90;45.45
68179;BME280;69812;42.632;23.440;2023-09-07T07:46:08;95675.84;;;25.02;46.54
68179;BME280;69812;42.632;23.440;2023-09-07T07:48:33;95682.59;;;24.92;46.42
68179;BME280;69812;42.632;23.440;2023-09-07T07:51:03;95679.38;;;25.85;44.94
68179;BME280;69812;42.632;23.440;2023-09-07T07:53:29;95681.16;;;25.85;44.00
68179;BME280;69812;42.632;23.440;2023-09-07T07:55:54;95673.66;;;25.38;45.13
68179;BME280;69812;42.632;23.440;2023-09-07T07:58:21;95677.38;;;25.55;44.79
68179;BME280;69812;42.632;23.440;2023-09-07T08:00:46;95671.66;;;25.90;43.00
68179;BME280;69812;42.632;23.440;2023-09-07T08:03:12;95680.03;;;26.24;43.20
68179;BME280;69812;42.632;23.440;2023-09-07T08:05:38;95667.69;;;27.10;41.26
68179;BME280;69812;42.632;23.440;2023-09-07T08:08:05;95671.66;;;27.01;40.90
68179;BME280;69812;42.632;23.440;2023-09-07T08:10:34;95667.09;;;27.27;41.58
68179;BME280;69812;42.632;23.440;2023-09-07T08:13:02;95656.75;;;27.79;40.73
68179;BME280;69812;42.632;23.440;2023-09-07T08:15:32;95662.66;;;26.60;39.52
68179;BME280;69812;42.632;23.440;2023-09-07T08:17:57;95661.22;;;26.76;38.51
68179;BME280;69812;42.632;23.440;2023-09-07T08:20:25;95663.97;;;27.72;37.38
68179;BME280;69812;42.632;23.440;2023-09-07T08:22:50;95663.28;;;27.22;37.88
68179;BME280;69812;42.632;23.440;2023-09-07T08:25:20;95664.50;;;26.59;39.42
68179;BME280;69812;42.632;23.440;2023-09-07T08:27:45;95660.88;;;25.10;41.85
68179;BME280;69812;42.632;23.440;2023-09-07T08:30:14;95655.28;;;24.54;44.94
68179;BME280;69812;42.632;23.440;2023-09-07T08:32:44;95648.56;;;23.47;45.94
68179;BME280;69812;42.632;23.440;2023-09-07T08:35:13;95655.22;;;23.49;46.89
68179;BME280;69812;42.632;23.440;2023-09-07T08:37:41;95654.94;;;24.24;45.06
68179;BME280;69812;42.632;23.440;2023-09-07T08:40:07;95664.09;;;24.73;45.13
68179;BME280;69812;42.632;23.440;2023-09-07T08:42:36;95650.47;;;25.28;44.34
68179;BME280;69812;42.632;23.440;2023-09-07T08:45:03;95662.25;;;24.74;42.83
68179;BME280;69812;42.632;23.440;2023-09-07T08:47:33;95662.22;;;25.26;42.17
68179;BME280;69812;42.632;23.440;2023-09-07T08:49:59;95653.53;;;25.18;42.12
68179;BME280;69812;42.632;23.440;2023-09-07T08:52:28;95655.25;;;25.38;41.54
68179;BME280;69812;42.632;23.440;2023-09-07T08:54:53;95651.91;;;25.17;41.67
68179;BME280;69812;42.632;23.440;2023-09-07T08:57:26;95648.88;;;24.89;42.59
68179;BME280;69812;42.632;23.440;2023-09-07T08:59:53;95649.16;;;25.44;41.87
68179;BME280;69812;42.632;23.440;2023-09-07T09:02:18;95652.00;;;25.42;40.88
68179;BME280;69812;42.632;23.440;2023-09-07T09:04:44;95653.38;;;25.45;41.37
68179;BME280;69812;42.632;23.440;2023-09-07T09:07:09;95650.78;;;25.70;40.98
68179;BME280;69812;42.632;23.440;2023-09-07T09:09:35;95648.09;;;25.77;41.16
68179;BME280;69812;42.632;23.440;2023-09-07T09:12:10;95651.00;;;26.12;40.46
68179;BME280;69812;42.632;23.440;2023-09-07T09:14:37;95642.75;;;25.83;40.91
68179;BME280;69812;42.632;23.440;2023-09-07T09:17:02;95642.38;;;25.80;40.79
68179;BME280;69812;42.632;23.440;2023-09-07T09:19:32;95635.78;;;25.20;40.60
68179;BME280;69812;42.632;23.440;2023-09-07T09:22:00;95636.53;;;25.28;41.26
68179;BME280;69812;42.632;23.440;2023-09-07T09:24:31;95633.00;;;25.40;40.17
68179;BME280;69812;42.632;23.440;2023-09-07T09:26:59;95641.81;;;26.03;39.40
68179;BME280;69812;42.632;23.440;2023-09-07T09:29:25;95633.91;;;26.40;37.62
68179;BME280;69812;42.632;23.440;2023-09-07T09:31:53;95634.50;;;26.23;39.46
68179;BME280;69812;42.632;23.440;2023-09-07T09:34:20;95627.16;;;27.11;37.67
68179;BME280;69812;42.632;23.440;2023-09-07T09:36:45;95622.59;;;26.58;37.67
68179;BME280;69812;42.632;23.440;2023-09-07T09:39:24;95624.84;;;27.57;36.34
68179;BME280;69812;42.632;23.440;2023-09-07T09:41:49;95630.94;;;27.45;34.50
68179;BME280;69812;42.632;23.440;2023-09-07T09:44:16;95623.78;;;27.34;35.83
68179;BME280;69812;42.632;23.440;2023-09-07T09:46:42;95617.28;;;28.19;33.88
68179;BME280;69812;42.632;23.440;2023-09-07T09:49:08;95612.22;;;28.99;32.33
68179;BME280;69812;42.632;23.440;2023-09-07T09:51:44;95609.72;;;29.21;32.20
68179;BME280;69812;42.632;23.440;2023-09-07T09:54:11;95619.19;;;29.34;32.29
68179;BME280;69812;42.632;23.440;2023-09-07T09:56:37;95611.50;;;29.15;32.01
68179;BME280;69812;42.632;23.440;2023-09-07T09:59:04;95614.66;;;28.72;32.58
68179;BME280;69812;42.632;23.440;2023-09-07T10:01:39;95608.41;;;28.49;33.54
68179;BME280;69812;42.632;23.440;2023-09-07T10:04:09;95603.97;;;28.14;33.89
68179;BME280;69812;42.632;23.440;2023-09-07T10:06:35;95606.97;;;28.70;32.37
68179;BME280;69812;42.632;23.440;2023-09-07T10:09:07;95598.94;;;29.56;31.78
68179;BME280;69812;42.632;23.440;2023-09-07T10:11:37;95603.94;;;29.92;29.57
68179;BME280;69812;42.632;23.440;2023-09-07T10:14:04;95600.69;;;29.51;30.31
68179;BME280;69812;42.632;23.440;2023-09-07T10:21:44;95600.78;;;27.89;33.47
68179;BME280;69812;42.632;23.440;2023-09-07T10:24:09;95587.38;;;27.66;34.09
68179;BME280;69812;42.632;23.440;2023-09-07T10:26:35;95595.97;;;27.08;34.53
68179;BME280;69812;42.632;23.440;2023-09-07T10:29:01;95592.19;;;26.74;36.08
68179;BME280;69812;42.632;23.440;2023-09-07T10:31:29;95597.09;;;26.03;37.30
68179;BME280;69812;42.632;23.440;2023-09-07T10:34:08;95585.28;;;25.87;38.13
68179;BME280;69812;42.632;23.440;2023-09-07T10:36:34;95584.44;;;25.93;37.10
68179;BME280;69812;42.632;23.440;2023-09-07T10:39:03;95591.50;;;25.74;37.77
68179;BME280;69812;42.632;23.440;2023-09-07T10:41:40;95585.34;;;25.62;38.49
68179;BME280;69812;42.632;23.440;2023-09-07T10:44:09;95588.16;;;25.60;38.55
68179;BME280;69812;42.632;23.440;2023-09-07T10:46:40;95583.72;;;26.23;36.83
68179;BME280;69812;42.632;23.440;2023-09-07T10:49:11;95590.94;;;26.28;37.20
68179;BME280;69812;42.632;23.440;2023-09-07T10:51:46;95586.31;;;26.60;36.23
68179;BME280;69812;42.632;23.440;2023-09-07T10:54:22;95584.53;;;26.54;36.54
68179;BME280;69812;42.632;23.440;2023-09-07T10:56:49;95593.88;;;26.38;37.41
68179;BME280;69812;42.632;23.440;2023-09-07T10:59:17;95593.22;;;26.24;37.28
68179;BME280;69812;42.632;23.440;2023-09-07T11:01:46;95588.53;;;25.89;37.58
68179;BME280;69812;42.632;23.440;2023-09-07T11:04:13;95588.69;;;26.13;37.15
68179;BME280;69812;42.632;23.440;2023-09-07T11:06:40;95587.75;;;25.82;37.74
68179;BME280;69812;42.632;23.440;2023-09-07T11:09:06;95583.34;;;25.57;38.70
68179;BME280;69812;42.632;23.440;2023-09-07T11:11:36;95588.66;;;24.94;39.89
68179;BME280;69812;42.632;23.440;2023-09-07T11:14:05;95581.59;;;24.56;41.21
68179;BME280;69812;42.632;23.440;2023-09-07T11:16:32;95593.78;;;25.14;38.88
68179;BME280;69812;42.632;23.440;2023-09-07T11:19:05;95587.28;;;25.16;39.89
68179;BME280;69812;42.632;23.440;2023-09-07T11:21:32;95582.03;;;25.16;39.74
68179;BME280;69812;42.632;23.440;2023-09-07T11:24:01;95579.78;;;24.95;40.21
68179;BME280;69812;42.632;23.440;2023-09-07T11:26:40;95580.16;;;24.98;40.83
68179;BME280;69812;42.632;23.440;2023-09-07T11:29:08;95585.09;;;25.20;40.78
68179;BME280;69812;42.632;23.440;2023-09-07T11:31:33;95584.66;;;25.23;40.13
68179;BME280;69812;42.632;23.440;2023-09-07T11:33:58;95583.19;;;25.52;40.04
68179;BME280;69812;42.632;23.440;2023-09-07T11:36:24;95578.38;;;25.49;39.41
68179;BME280;69812;42.632;23.440;2023-09-07T11:38:49;95579.03;;;25.13;40.58
68179;BME280;69812;42.632;23.440;2023-09-07T11:41:15;95576.78;;;25.16;40.47
68179;BME280;69812;42.632;23.440;2023-09-07T11:43:40;95581.75;;;24.99;40.78
68179;BME280;69812;42.632;23.440;2023-09-07T11:46:09;95572.31;;;24.92;40.93
68179;BME280;69812;42.632;23.440;2023-09-07T11:48:34;95574.13;;;25.23;39.66
68179;BME280;69812;42.632;23.440;2023-09-07T11:51:00;95574.56;;;25.89;39.02
68179;BME280;69812;42.632;23.440;2023-09-07T11:53:26;95575.34;;;25.96;38.13
68179;BME280;69812;42.632;23.440;2023-09-07T11:55:51;95574.66;;;26.37;38.07
68179;BME280;69812;42.632;23.440;2023-09-07T11:58:19;95568.84;;;25.73;38.80
68179;BME280;69812;42.632;23.440;2023-09-07T12:00:44;95573.50;;;25.53;39.16
68179;BME280;69812;42.632;23.440;2023-09-07T12:03:10;95568.56;;;25.06;39.88
68179;BME280;69812;42.632;23.440;2023-09-07T12:05:38;95564.50;;;25.10;39.95
68179;BME280;69812;42.632;23.440;2023-09-07T12:08:05;95563.63;;;25.23;39.66
68179;BME280;69812;42.632;23.440;2023-09-07T12:10:31;95559.53;;;25.52;39.62
68179;BME280;69812;42.632;23.440;2023-09-07T12:12:56;95562.13;;;25.34;39.28
68179;BME280;69812;42.632;23.440;2023-09-07T12:15:21;95549.84;;;24.96;40.98
68179;BME280;69812;42.632;23.440;2023-09-07T12:17:47;95552.78;;;24.49;40.57
68179;BME280;69812;42.632;23.440;2023-09-07T12:20:14;95552.97;;;24.86;40.57
68179;BME280;69812;42.632;23.440;2023-09-07T12:22:40;95542.38;;;24.99;39.67
68179;BME280;69812;42.632;23.440;2023-09-07T12:25:14;95555.97;;;25.21;40.11
68179;BME280;69812;42.632;23.440;2023-09-07T12:27:40;95556.09;;;25.52;38.82
68179;BME280;69812;42.632;23.440;2023-09-07T12:30:09;95550.66;;;25.72;38.78
68179;BME280;69812;42.632;23.440;2023-09-07T12:32:38;95556.41;;;25.62;38.67
68179;BME280;69812;42.632;23.440;2023-09-07T12:35:06;95548.66;;;25.49;38.04
68179;BME280;69812;42.632;23.440;2023-09-07T12:37:35;95548.00;;;25.53;38.44
68179;BME280;69812;42.632;23.440;2023-09-07T12:40:01;95558.66;;;25.08;39.44
68179;BME280;69812;42.632;23.440;2023-09-07T12:42:30;95561.41;;;25.45;38.64
68179;BME280;69812;42.632;23.440;2023-09-07T12:44:55;95559.34;;;24.97;38.86
68179;BME280;69812;42.632;23.440;2023-09-07T12:47:23;95557.00;;;25.14;39.10
68179;BME280;69812;42.632;23.440;2023-09-07T12:49:50;95561.13;;;25.03;39.65
68179;BME280;69812;42.632;23.440;2023-09-07T12:52:18;95564.25;;;25.44;39.23
68179;BME280;69812;42.632;23.440;2023-09-07T12:54:43;95571.75;;;25.90;37.68
68179;BME280;69812;42.632;23.440;2023-09-07T12:57:09;95572.38;;;25.10;38.66
68179;BME280;69812;42.632;23.440;2023-09-07T12:59:37;95565.13;;;25.81;38.09
68179;BME280;69812;42.632;23.440;2023-09-07T13:02:06;95567.72;;;26.73;36.30
68179;BME280;69812;42.632;23.440;2023-09-07T13:04:33;95566.56;;;27.11;35.71
68179;BME280;69812;42.632;23.440;2023-09-07T13:07:01;95564.19;;;27.21;34.92
68179;BME280;69812;42.632;23.440;2023-09-07T13:09:27;95559.97;;;27.44;35.10
68179;BME280;69812;42.632;23.440;2023-09-07T13:11:55;95555.75;;;27.55;34.37